In Rescue
 
Open Full Screen Window  High Contrast Mode
Wind Gusting 00 knots
08
January 17, 2021 12:26 PM CST
Weather Information
Wind Direction
  360 °
Wind Speed
  08 kt (9 mph)
Wind Gust
  00 kt (0 mph)
Altimeter
29.80 in
Visibility
10 SM
Temperature
-06° C
21° F
Dewpoint
-07° C
19° F
Humidity
93%
1hr Rain Fall
00.00 in.
24hr Rain Fall
00.00 in.
Sky Condition
Overcast @ 6,500 ft
Scattered @ 800 ft
VFR

METAR K3N8 171826Z AUTO 36008KT 10SM SCT008 OVC065 M06/M07 A2980 RMK AO2 T10631067

FAA Disclaimer: The data displayed is for advisory purposes only and is not to be used for flight planning or operations.